createdAt,value
2023-01-15T00:00:14.437Z,7.90
2023-01-15T00:02:43.057Z,8.00
2023-01-15T00:05:11.124Z,7.90
2023-01-15T00:07:44.404Z,7.90
2023-01-15T00:10:16.863Z,7.90
2023-01-15T00:12:44.863Z,7.80
2023-01-15T00:15:14.752Z,7.90
2023-01-15T00:17:42.883Z,7.90
2023-01-15T00:20:12.960Z,7.80
2023-01-15T00:22:42.817Z,7.80
2023-01-15T00:25:29.620Z,7.80
2023-01-15T00:27:57.841Z,7.80
2023-01-15T00:30:26.113Z,7.80
2023-01-15T00:32:54.142Z,7.80
2023-01-15T00:35:24.061Z,7.70
2023-01-15T00:37:53.824Z,7.80
2023-01-15T00:40:22.321Z,7.70
2023-01-15T00:42:54.489Z,7.70
2023-01-15T00:45:43.417Z,7.70
2023-01-15T00:48:13.052Z,7.70
2023-01-15T00:50:42.771Z,7.70
2023-01-15T00:53:13.358Z,7.70
2023-01-15T00:55:44.863Z,7.60
2023-01-15T00:58:33.227Z,7.70
2023-01-15T01:01:21.771Z,7.60
2023-01-15T01:03:52.946Z,7.70
2023-01-15T01:06:22.570Z,7.60
2023-01-15T01:08:54.326Z,7.60
2023-01-15T01:11:26.889Z,7.60
2023-01-15T01:13:55.912Z,7.60
2023-01-15T01:16:27.043Z,7.60
2023-01-15T01:18:55.778Z,7.60
2023-01-15T01:21:25.636Z,7.60
2023-01-15T01:23:57.012Z,7.60
2023-01-15T01:26:28.682Z,7.60
2023-01-15T01:29:02.765Z,7.50
2023-01-15T01:31:31.148Z,7.60
2023-01-15T01:34:01.760Z,7.60
2023-01-15T01:36:31.729Z,7.60
2023-01-15T01:39:02.270Z,7.60
2023-01-15T01:41:30.977Z,7.70
2023-01-15T01:44:21.751Z,7.60
2023-01-15T01:46:49.842Z,7.60
2023-01-15T01:49:19.093Z,7.60
2023-01-15T01:51:51.262Z,7.60
2023-01-15T01:54:24.657Z,7.60
2023-01-15T01:56:53.401Z,7.60
2023-01-15T01:59:23.602Z,7.60
2023-01-15T02:01:52.031Z,7.50
2023-01-15T02:04:23.045Z,7.60
2023-01-15T02:06:56.034Z,7.60
2023-01-15T02:09:28.893Z,7.60
2023-01-15T02:12:26.273Z,7.60
2023-01-15T02:15:05.724Z,7.60
2023-01-15T02:17:41.612Z,7.60
2023-01-15T02:20:45.978Z,7.60
2023-01-15T02:23:34.720Z,7.60
2023-01-15T02:26:44.508Z,7.60
2023-01-15T02:29:27.626Z,7.60
2023-01-15T02:32:16.765Z,7.60
2023-01-15T02:35:14.836Z,7.60
2023-01-15T02:37:49.816Z,7.60
2023-01-15T02:40:21.045Z,7.60
2023-01-15T02:42:51.252Z,7.60
2023-01-15T02:45:27.055Z,7.60
2023-01-15T02:47:57.686Z,7.50
2023-01-15T02:50:30.987Z,7.50
2023-01-15T02:53:06.332Z,7.50
2023-01-15T02:55:38.838Z,7.50
2023-01-15T02:58:12.007Z,7.50
2023-01-15T03:00:48.445Z,7.50
2023-01-15T03:03:25.437Z,7.50
2023-01-15T03:06:01.585Z,7.50
2023-01-15T03:08:30.371Z,7.50
2023-01-15T03:11:08.866Z,7.50
2023-01-15T03:13:49.787Z,7.50
2023-01-15T03:16:40.816Z,7.40
2023-01-15T03:19:15.478Z,7.40
2023-01-15T03:21:52.628Z,7.30
2023-01-15T03:24:27.747Z,7.30
2023-01-15T03:26:56.819Z,7.40
2023-01-15T03:29:27.222Z,7.30
2023-01-15T03:31:59.668Z,7.40
2023-01-15T03:34:32.602Z,7.30
2023-01-15T03:37:03.810Z,7.30
2023-01-15T03:39:32.150Z,7.30
2023-01-15T03:42:17.768Z,7.40
2023-01-15T03:44:56.216Z,7.40
2023-01-15T03:47:35.482Z,7.40
2023-01-15T03:50:11.013Z,7.30
2023-01-15T03:52:50.276Z,7.40
2023-01-15T03:55:22.001Z,7.40
2023-01-15T03:57:57.414Z,7.40
2023-01-15T04:00:29.391Z,7.40
2023-01-15T04:03:01.049Z,7.40
2023-01-15T04:05:31.201Z,7.40
2023-01-15T04:08:01.928Z,7.40
2023-01-15T04:10:33.325Z,7.40
2023-01-15T04:13:06.189Z,7.40
2023-01-15T04:15:35.339Z,7.40
2023-01-15T04:18:05.645Z,7.40
2023-01-15T04:20:35.851Z,7.40
2023-01-15T04:23:05.475Z,7.40
2023-01-15T04:25:35.436Z,7.40
2023-01-15T04:28:04.983Z,7.40
2023-01-15T04:30:36.561Z,7.40
2023-01-15T04:33:06.670Z,7.40
2023-01-15T04:35:36.303Z,7.40
2023-01-15T04:38:05.516Z,7.40
2023-01-15T04:40:55.941Z,7.40
2023-01-15T04:43:43.387Z,7.40
2023-01-15T04:46:14.859Z,7.40
2023-01-15T04:48:44.525Z,7.30
2023-01-15T04:51:35.632Z,7.30
2023-01-15T04:54:28.671Z,7.30
2023-01-15T04:56:59.907Z,7.30
2023-01-15T04:59:31.528Z,7.30
2023-01-15T05:02:06.000Z,7.20
2023-01-15T05:04:37.580Z,7.20
2023-01-15T05:07:08.009Z,7.10
2023-01-15T05:09:37.608Z,7.20
2023-01-15T05:12:06.788Z,7.10
2023-01-15T05:14:34.805Z,7.10
2023-01-15T05:17:02.923Z,7.10
2023-01-15T05:19:30.965Z,7.10
2023-01-15T05:22:02.963Z,7.10
2023-01-15T05:24:32.208Z,7.10
2023-01-15T05:27:00.584Z,7.00
2023-01-15T05:29:29.890Z,7.00
2023-01-15T05:31:58.433Z,7.00
2023-01-15T05:34:28.008Z,7.00
2023-01-15T05:36:56.361Z,7.00
2023-01-15T05:39:26.919Z,7.00
2023-01-15T05:41:56.468Z,7.00
2023-01-15T05:44:27.937Z,7.00
2023-01-15T05:46:59.557Z,7.00
2023-01-15T05:49:29.894Z,6.90
2023-01-15T05:51:59.526Z,6.90
2023-01-15T05:54:31.744Z,6.90
2023-01-15T05:57:03.542Z,6.80
2023-01-15T05:59:35.306Z,6.80
2023-01-15T06:02:04.130Z,6.90
2023-01-15T06:04:32.528Z,6.80
2023-01-15T06:07:01.166Z,6.80
2023-01-15T06:09:31.760Z,6.70
2023-01-15T06:12:02.086Z,6.70
2023-01-15T06:14:31.585Z,6.80
2023-01-15T06:17:01.305Z,6.80
2023-01-15T06:19:32.241Z,6.80
2023-01-15T06:22:00.698Z,6.80
2023-01-15T06:24:30.168Z,6.80
2023-01-15T06:26:58.687Z,6.80
2023-01-15T06:29:32.660Z,6.80
2023-01-15T06:32:00.772Z,6.80
2023-01-15T06:34:28.872Z,6.80
2023-01-15T06:36:56.772Z,6.80
2023-01-15T06:39:24.706Z,6.80
2023-01-15T06:42:11.347Z,6.80
2023-01-15T06:44:56.843Z,6.80
2023-01-15T06:47:25.089Z,6.80
2023-01-15T06:49:55.687Z,6.80
2023-01-15T06:52:24.063Z,6.80
2023-01-15T06:54:52.565Z,6.80
2023-01-15T06:57:22.363Z,6.70
2023-01-15T06:59:51.323Z,6.70
2023-01-15T07:02:19.530Z,6.70
2023-01-15T07:04:48.021Z,6.70
2023-01-15T07:07:16.390Z,6.70
2023-01-15T07:09:44.489Z,6.70
2023-01-15T07:12:12.763Z,6.70
2023-01-15T07:14:42.314Z,6.70
2023-01-15T07:17:10.308Z,6.70
2023-01-15T07:19:38.577Z,6.70
2023-01-15T07:22:06.790Z,6.80
2023-01-15T07:24:35.384Z,6.80
2023-01-15T07:27:04.017Z,6.80
2023-01-15T07:29:32.063Z,6.80
2023-01-15T07:32:01.547Z,6.80
2023-01-15T07:34:29.630Z,6.80
2023-01-15T07:36:57.701Z,6.80
2023-01-15T07:39:25.733Z,6.80
2023-01-15T07:42:11.007Z,6.90
2023-01-15T07:44:56.674Z,6.90
2023-01-15T07:47:44.815Z,6.90
2023-01-15T07:50:14.954Z,6.90
2023-01-15T07:52:43.077Z,6.90
2023-01-15T07:55:12.752Z,7.00
2023-01-15T07:57:41.834Z,6.90
2023-01-15T08:00:13.267Z,7.00
2023-01-15T08:02:44.326Z,6.90
2023-01-15T08:05:13.027Z,7.00
2023-01-15T08:07:41.851Z,7.00
2023-01-15T08:10:11.618Z,7.00
2023-01-15T08:12:57.708Z,7.10
2023-01-15T08:15:26.031Z,7.10
2023-01-15T08:17:55.474Z,7.10
2023-01-15T08:20:25.626Z,7.10
2023-01-15T08:22:54.285Z,7.10
2023-01-15T08:25:24.418Z,7.10
2023-01-15T08:27:53.604Z,7.10
2023-01-15T08:30:23.955Z,7.10
2023-01-15T08:32:51.932Z,7.10
2023-01-15T08:35:21.512Z,7.10
2023-01-15T08:37:49.566Z,7.20
2023-01-15T08:40:17.895Z,7.10
2023-01-15T08:42:45.899Z,7.10
2023-01-15T08:45:14.262Z,7.20
2023-01-15T08:47:42.254Z,7.20
2023-01-15T08:50:11.662Z,7.20
2023-01-15T08:52:41.546Z,7.20
2023-01-15T08:55:10.197Z,7.20
2023-01-15T08:57:38.696Z,7.20
2023-01-15T09:00:08.685Z,7.20
2023-01-15T09:02:36.769Z,7.20
2023-01-15T09:05:05.217Z,7.20
2023-01-15T09:07:35.401Z,7.20
2023-01-15T09:10:05.650Z,7.30
2023-01-15T09:12:33.735Z,7.30
2023-01-15T09:15:03.151Z,7.30
2023-01-15T09:17:33.879Z,7.40
2023-01-15T09:20:03.345Z,7.30
2023-01-15T09:22:31.623Z,7.40
2023-01-15T09:24:59.836Z,7.40
2023-01-15T09:27:30.103Z,7.40
2023-01-15T09:29:58.492Z,7.40
2023-01-15T09:32:26.710Z,7.50
2023-01-15T09:34:55.006Z,7.50
2023-01-15T09:37:23.100Z,7.50
2023-01-15T09:39:51.522Z,7.60
2023-01-15T09:42:34.741Z,7.60
2023-01-15T09:45:23.675Z,7.60
2023-01-15T09:48:08.805Z,7.60
2023-01-15T09:50:48.352Z,7.60
2023-01-15T09:53:34.364Z,7.70
2023-01-15T09:56:04.882Z,7.70
2023-01-15T09:58:39.784Z,7.70
2023-01-15T10:01:11.219Z,7.70
2023-01-15T10:03:44.327Z,7.80
2023-01-15T10:06:19.131Z,7.80
2023-01-15T10:08:49.093Z,7.80
2023-01-15T10:11:50.411Z,7.80
2023-01-15T10:14:39.429Z,7.90
2023-01-15T10:17:26.356Z,7.90
2023-01-15T10:19:55.402Z,7.90
2023-01-15T10:22:47.901Z,7.90
2023-01-15T10:25:19.204Z,7.90
2023-01-15T10:27:51.776Z,7.90
2023-01-15T10:30:29.772Z,7.90
2023-01-15T10:33:03.451Z,7.90
2023-01-15T10:35:39.066Z,7.90
2023-01-15T10:38:15.341Z,7.90
2023-01-15T10:41:23.560Z,7.90
2023-01-15T10:43:58.724Z,8.00
2023-01-15T10:46:33.914Z,8.00
2023-01-15T10:49:06.787Z,8.00
2023-01-15T10:51:42.160Z,8.00
2023-01-15T10:54:18.116Z,8.00
2023-01-15T10:56:53.246Z,8.00
2023-01-15T10:59:29.009Z,8.00
2023-01-15T11:02:01.336Z,8.10
2023-01-15T11:04:33.338Z,8.10
2023-01-15T11:07:03.451Z,8.20
2023-01-15T11:09:34.815Z,8.20
2023-01-15T11:12:36.185Z,8.30
2023-01-15T11:15:32.867Z,8.30
2023-01-15T11:18:22.263Z,8.30
2023-01-15T11:20:51.481Z,8.30
2023-01-15T11:23:23.367Z,8.30
2023-01-15T11:25:54.771Z,8.30
2023-01-15T11:28:34.867Z,8.30
2023-01-15T11:31:03.449Z,8.40
2023-01-15T11:33:33.074Z,8.40
2023-01-15T11:36:02.781Z,8.40
2023-01-15T11:38:32.223Z,8.40
2023-01-15T11:41:02.115Z,8.40
2023-01-15T11:43:54.554Z,8.40
2023-01-15T11:46:46.059Z,8.40
2023-01-15T11:49:37.536Z,8.40
2023-01-15T11:52:08.224Z,8.30
2023-01-15T11:54:39.477Z,8.30
2023-01-15T11:57:08.013Z,8.30
2023-01-15T11:59:37.240Z,8.30
2023-01-15T12:02:17.385Z,8.30
2023-01-15T12:04:53.077Z,8.30
2023-01-15T12:07:24.483Z,8.40
2023-01-15T12:10:15.415Z,8.40
2023-01-15T12:13:00.264Z,8.40
2023-01-15T12:15:36.999Z,8.40
2023-01-15T12:18:42.468Z,8.40
2023-01-15T12:21:24.891Z,8.40
2023-01-15T12:24:11.066Z,8.40
2023-01-15T12:26:46.428Z,8.30
2023-01-15T12:29:22.018Z,8.40
2023-01-15T12:31:56.225Z,8.40
2023-01-15T12:34:27.838Z,8.40
2023-01-15T12:37:03.602Z,8.40
2023-01-15T12:39:34.965Z,8.40
2023-01-15T12:42:25.082Z,8.40
2023-01-15T12:45:04.119Z,8.50
2023-01-15T12:47:40.394Z,8.50
2023-01-15T12:50:26.554Z,8.50
2023-01-15T12:53:00.903Z,8.60
2023-01-15T12:55:32.710Z,8.60
2023-01-15T12:58:03.539Z,8.60
2023-01-15T13:00:37.183Z,8.70
2023-01-15T13:03:17.923Z,8.70
2023-01-15T13:05:49.960Z,8.70
2023-01-15T13:08:25.417Z,8.70
2023-01-15T13:10:54.129Z,8.60
2023-01-15T13:13:24.622Z,8.70
2023-01-15T13:16:05.856Z,8.70
2023-01-15T13:18:40.723Z,8.70
2023-01-15T13:21:14.491Z,8.70
2023-01-15T13:23:57.953Z,8.70
2023-01-15T13:26:55.438Z,8.70
2023-01-15T13:29:36.034Z,8.70
2023-01-15T13:32:09.835Z,8.70
2023-01-15T13:34:44.611Z,8.70
2023-01-15T13:37:21.539Z,8.70
2023-01-15T13:39:53.147Z,8.70
2023-01-15T13:42:37.663Z,8.70
2023-01-15T13:45:26.630Z,8.70
2023-01-15T13:48:01.589Z,8.70
2023-01-15T13:50:32.733Z,8.80
2023-01-15T13:53:03.686Z,8.80
2023-01-15T13:55:35.378Z,8.80
2023-01-15T13:58:03.494Z,8.80
2023-01-15T14:00:36.736Z,8.90
2023-01-15T14:03:26.375Z,8.80
2023-01-15T14:05:58.711Z,8.80
2023-01-15T14:08:29.959Z,8.70
2023-01-15T14:11:01.458Z,8.70
2023-01-15T14:13:59.459Z,8.70
2023-01-15T14:16:44.080Z,8.70
2023-01-15T14:19:38.941Z,8.70
2023-01-15T14:22:28.964Z,8.70
2023-01-15T14:25:19.945Z,8.70
2023-01-15T14:28:03.429Z,8.60
2023-01-15T14:31:03.954Z,8.60
2023-01-15T14:33:39.081Z,8.60
2023-01-15T14:36:16.329Z,8.60
2023-01-15T14:38:49.392Z,8.60
2023-01-15T14:41:17.978Z,8.60
2023-01-15T14:43:51.166Z,8.60
2023-01-15T14:46:27.915Z,8.50
2023-01-15T14:48:56.389Z,8.60
2023-01-15T14:51:28.271Z,8.50
2023-01-15T14:53:59.071Z,8.50
2023-01-15T14:56:32.632Z,8.50
2023-01-15T14:59:11.016Z,8.50
2023-01-15T15:01:44.889Z,8.50
2023-01-15T15:04:27.193Z,8.50
2023-01-15T15:06:57.142Z,8.50
2023-01-15T15:09:31.311Z,8.50
2023-01-15T15:12:22.405Z,8.50
2023-01-15T15:15:00.223Z,8.40
2023-01-15T15:17:38.447Z,8.40
2023-01-15T15:20:23.333Z,8.40
2023-01-15T15:22:56.269Z,8.40
2023-01-15T15:25:28.035Z,8.40
2023-01-15T15:28:07.236Z,8.40
2023-01-15T15:30:41.318Z,8.40
2023-01-15T15:33:18.291Z,8.40
2023-01-15T15:35:49.113Z,8.40
2023-01-15T15:38:19.311Z,8.40
2023-01-15T15:40:51.138Z,8.50
2023-01-15T15:43:41.407Z,8.40
2023-01-15T15:46:41.504Z,8.40
2023-01-15T15:49:09.963Z,8.40
2023-01-15T15:51:41.086Z,8.40
2023-01-15T15:54:15.866Z,8.40
2023-01-15T15:56:49.897Z,8.40
2023-01-15T15:59:33.819Z,8.30
2023-01-15T16:02:16.153Z,8.30
2023-01-15T16:04:48.466Z,8.30
2023-01-15T16:07:24.375Z,8.30
2023-01-15T16:09:54.500Z,8.40
2023-01-15T16:12:23.257Z,8.40
2023-01-15T16:14:52.844Z,8.40
2023-01-15T16:17:23.820Z,8.40
2023-01-15T16:19:52.254Z,8.50
2023-01-15T16:22:21.191Z,8.40
2023-01-15T16:24:57.087Z,8.40
2023-01-15T16:27:29.934Z,8.30
2023-01-15T16:29:58.119Z,8.30
2023-01-15T16:32:31.450Z,8.30
2023-01-15T16:35:05.410Z,8.30
2023-01-15T16:37:35.832Z,8.30
2023-01-15T16:40:06.746Z,8.20
2023-01-15T16:42:37.427Z,8.10
2023-01-15T16:45:09.165Z,8.10
2023-01-15T16:47:38.699Z,8.00
2023-01-15T16:50:29.461Z,8.00
2023-01-15T16:53:00.399Z,8.00
2023-01-15T16:55:40.476Z,7.90
2023-01-15T16:58:20.281Z,7.90
2023-01-15T17:00:51.156Z,7.90
2023-01-15T17:03:22.946Z,7.70
2023-01-15T17:05:52.929Z,7.70
2023-01-15T17:08:23.186Z,7.60
2023-01-15T17:10:56.988Z,7.60
2023-01-15T17:13:34.119Z,7.60
2023-01-15T17:16:05.481Z,7.60
2023-01-15T17:18:36.353Z,7.50
2023-01-15T17:21:04.805Z,7.40
2023-01-15T17:23:37.072Z,7.40
2023-01-15T17:26:06.619Z,7.30
2023-01-15T17:28:35.343Z,7.30
2023-01-15T17:31:04.297Z,7.20
2023-01-15T17:33:32.317Z,7.30
2023-01-15T17:36:01.703Z,7.20
2023-01-15T17:38:29.880Z,7.20
2023-01-15T17:41:00.650Z,7.20
2023-01-15T17:43:28.651Z,7.20
2023-01-15T17:45:56.896Z,7.20
2023-01-15T17:48:24.881Z,7.10
2023-01-15T17:50:54.516Z,7.10
2023-01-15T17:53:24.103Z,7.10
2023-01-15T17:56:09.644Z,7.10
2023-01-15T17:58:54.910Z,7.10
2023-01-15T18:01:43.420Z,7.10
2023-01-15T18:04:36.306Z,7.10
2023-01-15T18:07:04.915Z,7.00
2023-01-15T18:09:35.822Z,7.00
2023-01-15T18:12:04.309Z,7.00
2023-01-15T18:14:32.357Z,7.00
2023-01-15T18:17:00.328Z,6.90
2023-01-15T18:19:28.500Z,7.00
2023-01-15T18:21:56.613Z,6.90
2023-01-15T18:24:24.926Z,6.90
2023-01-15T18:26:55.520Z,6.80
2023-01-15T18:29:23.572Z,6.80
2023-01-15T18:31:51.624Z,6.80
2023-01-15T18:34:19.597Z,6.80
2023-01-15T18:36:47.962Z,6.70
2023-01-15T18:39:15.927Z,6.70
2023-01-15T18:42:02.185Z,6.70
2023-01-15T18:44:48.950Z,6.70
2023-01-15T18:47:17.862Z,6.70
2023-01-15T18:49:47.656Z,6.70
2023-01-15T18:52:34.410Z,6.60
2023-01-15T18:55:02.679Z,6.60
2023-01-15T18:57:33.826Z,6.60
2023-01-15T19:00:03.556Z,6.60
2023-01-15T19:02:31.670Z,6.50
2023-01-15T19:05:00.715Z,6.50
2023-01-15T19:07:28.837Z,6.40
2023-01-15T19:09:59.621Z,6.40
2023-01-15T19:12:28.034Z,6.40
2023-01-15T19:15:13.868Z,6.30
2023-01-15T19:18:04.396Z,6.30
2023-01-15T19:20:38.303Z,6.30
2023-01-15T19:23:06.887Z,6.30
2023-01-15T19:25:39.580Z,6.30
2023-01-15T19:28:10.084Z,6.20
2023-01-15T19:30:39.925Z,6.20
2023-01-15T19:33:10.909Z,6.20
2023-01-15T19:35:41.118Z,6.10
2023-01-15T19:38:12.833Z,6.10
2023-01-15T19:40:42.289Z,6.10
2023-01-15T19:43:28.986Z,6.10
2023-01-15T19:46:15.566Z,6.10
2023-01-15T19:49:22.165Z,6.00
2023-01-15T19:52:12.696Z,6.00
2023-01-15T19:54:59.918Z,5.90
2023-01-15T19:57:28.607Z,5.90
2023-01-15T19:59:58.175Z,5.80
2023-01-15T20:02:26.620Z,5.70
2023-01-15T20:04:57.139Z,5.70
2023-01-15T20:07:26.960Z,5.80
2023-01-15T20:09:55.694Z,5.80
2023-01-15T20:12:41.338Z,5.70
2023-01-15T20:15:10.606Z,5.70
2023-01-15T20:17:39.172Z,5.70
2023-01-15T20:20:26.336Z,5.80
2023-01-15T20:22:58.142Z,5.70
2023-01-15T20:25:30.069Z,5.70
2023-01-15T20:27:59.909Z,5.70
2023-01-15T20:30:28.509Z,5.70
2023-01-15T20:32:59.083Z,5.70
2023-01-15T20:35:33.722Z,5.70
2023-01-15T20:38:03.505Z,5.80
2023-01-15T20:40:36.361Z,5.70
2023-01-15T20:43:22.626Z,5.80
2023-01-15T20:45:52.368Z,5.70
2023-01-15T20:48:40.958Z,5.70
2023-01-15T20:51:16.481Z,5.70
2023-01-15T20:53:44.927Z,5.80
2023-01-15T20:56:19.168Z,5.80
2023-01-15T20:58:47.652Z,5.80
2023-01-15T21:01:19.393Z,5.80
2023-01-15T21:04:10.597Z,5.80
2023-01-15T21:06:40.556Z,5.80
2023-01-15T21:09:30.835Z,5.80
2023-01-15T21:12:00.338Z,5.80
2023-01-15T21:14:28.545Z,5.80
2023-01-15T21:16:56.669Z,5.80
2023-01-15T21:19:45.765Z,5.80
2023-01-15T21:22:18.291Z,5.80
2023-01-15T21:24:48.772Z,5.80
2023-01-15T21:27:26.766Z,5.80
2023-01-15T21:29:56.386Z,5.80
2023-01-15T21:32:25.220Z,5.80
2023-01-15T21:34:54.033Z,5.90
2023-01-15T21:37:24.378Z,5.90
2023-01-15T21:39:53.243Z,5.90
2023-01-15T21:42:41.323Z,5.90
2023-01-15T21:45:29.470Z,5.90
2023-01-15T21:47:57.708Z,5.90
2023-01-15T21:50:48.921Z,5.80
2023-01-15T21:53:18.857Z,5.80
2023-01-15T21:55:50.216Z,5.80
2023-01-15T21:58:20.653Z,5.80
2023-01-15T22:00:52.615Z,5.80
2023-01-15T22:03:29.655Z,5.80
2023-01-15T22:06:05.198Z,5.80
2023-01-15T22:08:35.551Z,5.80
2023-01-15T22:11:09.619Z,5.70
2023-01-15T22:13:39.626Z,5.70
2023-01-15T22:16:08.090Z,5.70
2023-01-15T22:18:36.395Z,5.80
2023-01-15T22:21:08.275Z,5.70
2023-01-15T22:23:38.740Z,5.70
2023-01-15T22:26:08.331Z,5.70
2023-01-15T22:28:39.907Z,5.70
2023-01-15T22:31:08.797Z,5.70
2023-01-15T22:33:38.362Z,5.70
2023-01-15T22:36:10.590Z,5.70
2023-01-15T22:38:41.307Z,5.70
2023-01-15T22:41:10.623Z,5.70
2023-01-15T22:43:38.744Z,5.70
2023-01-15T22:46:15.095Z,5.70
2023-01-15T22:48:43.644Z,5.60
2023-01-15T22:51:17.043Z,5.60
2023-01-15T22:53:46.421Z,5.60
2023-01-15T22:56:16.893Z,5.60
2023-01-15T22:58:52.741Z,5.60
2023-01-15T23:01:25.643Z,5.60
2023-01-15T23:03:56.582Z,5.50
2023-01-15T23:06:28.239Z,5.60
2023-01-15T23:09:01.136Z,5.40
2023-01-15T23:11:51.649Z,5.50
2023-01-15T23:14:23.281Z,5.50
2023-01-15T23:16:52.278Z,5.40
2023-01-15T23:19:20.939Z,5.40
2023-01-15T23:21:49.448Z,5.40
2023-01-15T23:24:19.037Z,5.30
2023-01-15T23:26:47.378Z,5.40
2023-01-15T23:29:15.667Z,5.40
2023-01-15T23:31:43.939Z,5.40
2023-01-15T23:34:12.937Z,5.40
2023-01-15T23:36:42.491Z,5.40
2023-01-15T23:39:12.892Z,5.40
2023-01-15T23:41:59.921Z,5.40
2023-01-15T23:44:45.364Z,5.40
2023-01-15T23:47:13.943Z,5.30
2023-01-15T23:49:42.036Z,5.30
2023-01-15T23:52:10.138Z,5.20
2023-01-15T23:54:38.178Z,5.30
2023-01-15T23:57:09.082Z,5.30
2023-01-15T23:59:38.028Z,5.30
